createdAt,value
2022-10-11T00:01:20.532Z,77.40
2022-10-11T00:03:51.663Z,75.51
2022-10-11T00:06:22.197Z,77.38
2022-10-11T00:08:52.686Z,75.75
2022-10-11T00:11:23.179Z,77.05
2022-10-11T00:13:53.616Z,75.49
2022-10-11T00:16:24.143Z,75.61
2022-10-11T00:18:54.560Z,75.94
2022-10-11T00:21:25.360Z,72.51
2022-10-11T00:23:55.726Z,71.79
2022-10-11T00:26:26.154Z,71.69
2022-10-11T00:28:56.873Z,70.98
2022-10-11T00:31:29.104Z,71.14
2022-10-11T00:34:02.526Z,71.15
2022-10-11T00:36:33.173Z,71.42
2022-10-11T00:39:03.657Z,70.91
2022-10-11T00:41:34.443Z,70.89
2022-10-11T00:44:20.436Z,71.20
2022-10-11T00:47:11.933Z,70.96
2022-10-11T00:49:50.526Z,71.37
2022-10-11T00:52:44.027Z,70.91
2022-10-11T00:55:18.294Z,71.55
2022-10-11T00:57:51.292Z,71.38
2022-10-11T01:00:22.088Z,71.29
2022-10-11T01:02:52.892Z,71.28
2022-10-11T01:05:31.695Z,71.34
2022-10-11T01:08:02.543Z,71.67
2022-10-11T01:10:33.378Z,71.01
2022-10-11T01:13:28.958Z,71.34
2022-10-11T01:16:30.786Z,70.98
2022-10-11T01:19:17.715Z,70.96
2022-10-11T01:22:16.047Z,71.56
2022-10-11T01:25:18.381Z,71.15
2022-10-11T01:28:09.487Z,71.47
2022-10-11T01:30:41.217Z,71.13
2022-10-11T01:33:11.713Z,71.20
2022-10-11T01:36:13.981Z,71.32
2022-10-11T01:38:58.067Z,72.63
2022-10-11T01:41:38.461Z,71.22
2022-10-11T01:44:11.077Z,71.01
2022-10-11T01:46:42.159Z,71.50
2022-10-11T01:49:12.694Z,71.57
2022-10-11T01:51:48.141Z,71.72
2022-10-11T01:54:49.798Z,71.00
2022-10-11T01:57:59.012Z,71.75
2022-10-11T02:00:35.509Z,71.70
2022-10-11T02:03:16.200Z,71.31
2022-10-11T02:05:53.462Z,71.85
2022-10-11T02:08:44.537Z,71.51
2022-10-11T02:11:36.410Z,71.60
2022-10-11T02:14:27.349Z,71.59
2022-10-11T02:17:21.823Z,72.00
2022-10-11T02:20:08.965Z,72.05
2022-10-11T02:22:59.355Z,72.10
2022-10-11T02:25:46.709Z,71.53
2022-10-11T02:28:34.053Z,71.91
2022-10-11T02:31:19.147Z,71.65
2022-10-11T02:34:22.736Z,71.53
2022-10-11T02:37:21.070Z,72.23
2022-10-11T02:40:26.832Z,71.72
2022-10-11T02:43:38.318Z,72.44
2022-10-11T02:46:20.212Z,72.17
2022-10-11T02:49:04.075Z,72.06
2022-10-11T02:51:46.485Z,71.88
2022-10-11T02:54:29.731Z,72.51
2022-10-11T02:57:12.681Z,71.98
2022-10-11T02:59:55.999Z,72.02
2022-10-11T03:02:40.671Z,72.19
2022-10-11T03:05:27.434Z,72.36
2022-10-11T03:08:14.981Z,72.13
2022-10-11T03:10:59.447Z,71.89
2022-10-11T03:13:43.313Z,72.09
2022-10-11T03:16:26.346Z,71.70
2022-10-11T03:19:09.441Z,71.84
2022-10-11T03:21:52.430Z,71.35
2022-10-11T03:24:35.345Z,71.82
2022-10-11T03:27:18.423Z,71.58
2022-10-11T03:30:01.461Z,71.24
2022-10-11T03:32:45.544Z,71.55
2022-10-11T03:35:29.009Z,71.41
2022-10-11T03:38:19.510Z,71.17
2022-10-11T03:41:00.665Z,71.18
2022-10-11T03:43:44.502Z,71.27
2022-10-11T03:46:28.364Z,70.84
2022-10-11T03:49:12.059Z,70.42
2022-10-11T03:51:54.980Z,70.75
2022-10-11T03:54:40.225Z,70.47
2022-10-11T03:57:22.493Z,70.64
2022-10-11T04:00:08.572Z,70.40
2022-10-11T04:02:56.714Z,70.34
2022-10-11T04:05:41.596Z,70.21
2022-10-11T04:08:30.117Z,70.16
2022-10-11T04:11:13.812Z,70.06
2022-10-11T04:13:57.944Z,70.28
2022-10-11T04:16:43.049Z,69.56
2022-10-11T04:19:26.064Z,70.12
2022-10-11T04:22:10.021Z,69.74
2022-10-11T04:24:53.612Z,69.47
2022-10-11T04:27:37.398Z,69.51
2022-10-11T04:30:21.223Z,69.54
2022-10-11T04:33:04.477Z,69.74
2022-10-11T04:35:49.180Z,69.45
2022-10-11T04:38:31.758Z,69.47
2022-10-11T04:41:16.192Z,69.21
2022-10-11T04:47:00.224Z,69.23
2022-10-11T04:49:45.084Z,69.31
2022-10-11T04:52:29.661Z,69.16
2022-10-11T04:55:13.082Z,68.90
2022-10-11T04:57:57.083Z,68.51
2022-10-11T05:00:39.888Z,68.77
2022-10-11T05:03:22.471Z,68.52
2022-10-11T05:06:07.641Z,68.34
2022-10-11T05:08:52.503Z,68.61
2022-10-11T05:11:34.927Z,68.60
2022-10-11T05:14:15.641Z,68.56
2022-10-11T05:16:59.546Z,68.26
2022-10-11T05:19:48.669Z,68.38
2022-10-11T05:22:31.828Z,68.55
2022-10-11T05:25:14.861Z,68.57
2022-10-11T05:27:55.443Z,68.39
2022-10-11T05:30:39.255Z,67.97
2022-10-11T05:33:23.505Z,68.34
2022-10-11T05:36:10.418Z,67.47
2022-10-11T05:38:53.138Z,67.50
2022-10-11T05:41:35.913Z,67.84
2022-10-11T05:44:19.499Z,67.38
2022-10-11T05:47:03.503Z,67.43
2022-10-11T05:49:46.541Z,67.46
2022-10-11T05:52:29.596Z,67.66
2022-10-11T05:55:15.110Z,67.41
2022-10-11T05:57:59.437Z,67.38
2022-10-11T06:00:42.599Z,67.14
2022-10-11T06:03:26.519Z,67.17
2022-10-11T06:06:11.458Z,67.28
2022-10-11T06:08:54.172Z,66.92
2022-10-11T06:11:38.092Z,67.07
2022-10-11T06:14:34.548Z,66.74
2022-10-11T06:17:35.433Z,66.52
2022-10-11T06:20:17.715Z,66.58
2022-10-11T06:23:17.353Z,66.83
2022-10-11T06:26:02.577Z,66.47
2022-10-11T06:29:00.025Z,66.49
2022-10-11T06:32:06.443Z,66.18
2022-10-11T06:35:06.562Z,66.42
2022-10-11T06:38:18.160Z,66.17
2022-10-11T06:41:24.499Z,65.75
2022-10-11T06:44:20.948Z,65.88
2022-10-11T06:47:17.095Z,66.15
2022-10-11T06:49:57.648Z,65.97
2022-10-11T06:52:55.320Z,65.99
2022-10-11T06:56:02.658Z,65.98
2022-10-11T06:59:01.624Z,65.74
2022-10-11T07:02:01.158Z,65.41
2022-10-11T07:04:56.759Z,65.78
2022-10-11T07:08:06.331Z,65.87
2022-10-11T07:10:48.538Z,65.83
2022-10-11T07:13:52.534Z,65.59
2022-10-11T07:16:55.384Z,65.42
2022-10-11T07:19:55.557Z,65.83
2022-10-11T07:22:55.758Z,65.67
2022-10-11T07:25:55.558Z,65.41
2022-10-11T07:29:00.999Z,65.43
2022-10-11T07:32:06.389Z,65.82
2022-10-11T07:35:04.335Z,65.31
2022-10-11T07:38:06.146Z,65.40
2022-10-11T07:41:06.935Z,65.60
2022-10-11T07:44:04.690Z,65.79
2022-10-11T07:47:00.370Z,65.89
2022-10-11T07:49:59.390Z,65.89
2022-10-11T07:52:58.637Z,65.92
2022-10-11T07:56:02.671Z,66.26
2022-10-11T07:59:02.460Z,66.62
2022-10-11T08:01:43.288Z,66.94
2022-10-11T08:04:57.053Z,66.71
2022-10-11T08:08:00.215Z,67.18
2022-10-11T08:10:41.824Z,66.86
2022-10-11T08:13:44.452Z,67.28
2022-10-11T08:16:43.749Z,67.46
2022-10-11T08:19:39.832Z,67.14
2022-10-11T08:22:41.342Z,67.11
2022-10-11T08:25:42.477Z,67.53
2022-10-11T08:28:49.044Z,67.74
2022-10-11T08:31:47.249Z,67.76
2022-10-11T08:34:48.620Z,67.92
2022-10-11T08:37:50.769Z,67.57
2022-10-11T08:40:56.005Z,67.60
2022-10-11T08:44:08.809Z,67.66
2022-10-11T08:47:27.228Z,68.63
2022-10-11T08:50:40.823Z,68.16
2022-10-11T08:53:47.826Z,68.29
2022-10-11T08:56:47.317Z,68.24
2022-10-11T08:59:57.783Z,68.95
2022-10-11T09:03:08.174Z,69.75
2022-10-11T09:06:17.296Z,70.24
2022-10-11T09:12:57.886Z,70.29
2022-10-11T09:16:15.608Z,70.45
2022-10-11T09:19:12.679Z,69.86
2022-10-11T09:22:21.541Z,71.41
2022-10-11T09:25:06.972Z,70.50
2022-10-11T09:28:01.261Z,70.58
2022-10-11T09:30:30.597Z,70.75
2022-10-11T09:33:18.711Z,71.09
2022-10-11T09:35:51.898Z,70.70
2022-10-11T09:38:40.267Z,71.11
2022-10-11T09:41:26.946Z,71.25
2022-10-11T09:43:57.659Z,70.75
2022-10-11T09:46:37.961Z,70.80
2022-10-11T09:49:15.789Z,70.91
2022-10-11T09:51:54.090Z,70.63
2022-10-11T09:55:01.769Z,71.63
2022-10-11T09:57:35.531Z,72.54
2022-10-11T10:00:34.864Z,73.20
2022-10-11T10:03:06.072Z,71.39
2022-10-11T10:05:39.439Z,71.25
2022-10-11T10:08:12.883Z,71.61
2022-10-11T10:10:57.149Z,71.65
2022-10-11T10:13:52.622Z,71.75
2022-10-11T10:16:29.606Z,71.77
2022-10-11T10:19:25.260Z,71.64
2022-10-11T10:21:57.855Z,71.34
2022-10-11T10:24:43.851Z,72.09
2022-10-11T10:27:19.537Z,71.89
2022-10-11T10:30:11.479Z,72.33
2022-10-11T10:33:00.902Z,72.03
2022-10-11T10:35:56.960Z,72.90
2022-10-11T10:38:27.519Z,72.29
2022-10-11T10:41:04.536Z,72.15
2022-10-11T10:43:37.567Z,71.97
2022-10-11T10:46:24.058Z,72.25
2022-10-11T10:49:51.985Z,72.52
2022-10-11T10:52:20.745Z,72.44
2022-10-11T10:55:13.668Z,72.44
2022-10-11T10:58:02.436Z,72.90
2022-10-11T11:00:45.152Z,73.01
2022-10-11T11:03:30.691Z,72.94
2022-10-11T11:06:17.366Z,72.95
2022-10-11T11:09:14.226Z,75.98
2022-10-11T11:12:12.059Z,77.73
2022-10-11T11:14:57.258Z,78.93
2022-10-11T11:18:02.501Z,77.25
2022-10-11T11:20:47.369Z,76.21
2022-10-11T11:23:39.445Z,75.84
2022-10-11T11:26:31.362Z,75.31
2022-10-11T11:29:07.525Z,75.63
2022-10-11T11:31:58.885Z,74.58
2022-10-11T11:34:41.456Z,75.18
2022-10-11T11:37:28.146Z,74.66
2022-10-11T11:40:19.963Z,74.68
2022-10-11T11:42:52.779Z,74.38
2022-10-11T11:45:29.315Z,73.88
2022-10-11T11:48:14.870Z,73.44
2022-10-11T11:50:56.643Z,73.91
2022-10-11T11:53:37.933Z,74.26
2022-10-11T11:56:42.515Z,73.61
2022-10-11T11:59:27.333Z,73.73
2022-10-11T12:02:06.415Z,73.35
2022-10-11T12:04:41.287Z,73.56
2022-10-11T12:07:17.307Z,73.94
2022-10-11T12:09:55.893Z,74.02
2022-10-11T12:12:29.459Z,73.38
2022-10-11T12:15:08.467Z,73.68
2022-10-11T12:18:18.355Z,73.93
2022-10-11T12:21:02.057Z,72.94
2022-10-11T12:23:32.390Z,72.86
2022-10-11T12:26:31.883Z,73.05
2022-10-11T12:29:29.053Z,73.47
2022-10-11T12:32:03.037Z,73.68
2022-10-11T12:37:23.485Z,73.65
2022-10-11T12:39:56.906Z,73.34
2022-10-11T12:42:31.608Z,73.74
2022-10-11T12:45:25.917Z,73.71
2022-10-11T12:48:14.590Z,73.60
2022-10-11T12:51:16.980Z,73.39
2022-10-11T12:54:25.909Z,73.18
2022-10-11T12:57:46.212Z,71.93
2022-10-11T13:00:32.945Z,70.90
2022-10-11T13:03:31.119Z,69.15
2022-10-11T13:06:17.548Z,69.09
2022-10-11T13:08:55.616Z,71.35
2022-10-11T13:11:36.698Z,74.70
2022-10-11T13:14:18.646Z,74.99
2022-10-11T13:16:52.501Z,76.04
2022-10-11T13:19:24.966Z,76.19
2022-10-11T13:21:58.789Z,76.53
2022-10-11T13:24:36.769Z,76.70
2022-10-11T13:27:09.885Z,77.37
2022-10-11T13:29:45.020Z,76.94
2022-10-11T13:32:24.690Z,77.30
2022-10-11T13:34:59.178Z,77.50
2022-10-11T13:37:31.946Z,75.85
2022-10-11T13:40:02.921Z,74.27
2022-10-11T13:42:37.588Z,73.81
2022-10-11T13:45:14.845Z,71.05
2022-10-11T13:47:45.856Z,70.68
2022-10-11T13:50:31.722Z,69.42
2022-10-11T13:53:11.523Z,70.91
2022-10-11T13:55:58.486Z,71.51
2022-10-11T13:58:49.287Z,69.17
2022-10-11T14:01:24.587Z,67.48
2022-10-11T14:04:02.873Z,67.35
2022-10-11T14:06:47.902Z,67.56
2022-10-11T14:09:20.674Z,67.66
2022-10-11T14:11:52.195Z,68.58
2022-10-11T14:14:34.854Z,67.59
2022-10-11T14:17:16.965Z,66.69
2022-10-11T14:19:49.924Z,66.30
2022-10-11T14:22:20.547Z,64.97
2022-10-11T14:24:51.154Z,64.57
2022-10-11T14:27:28.797Z,63.49
2022-10-11T14:30:25.224Z,63.18
2022-10-11T14:32:53.345Z,62.20
2022-10-11T14:35:33.185Z,61.63
2022-10-11T14:38:03.850Z,61.17
2022-10-11T14:40:34.390Z,62.12
2022-10-11T14:43:05.163Z,61.39
2022-10-11T14:45:35.767Z,60.71
2022-10-11T14:48:07.202Z,60.31
2022-10-11T14:51:06.155Z,59.90
2022-10-11T14:53:40.743Z,60.27
2022-10-11T14:56:11.698Z,59.03
2022-10-11T14:58:43.530Z,58.98
2022-10-11T15:01:16.162Z,58.52
2022-10-11T15:03:46.926Z,58.93
2022-10-11T15:06:34.005Z,57.98
2022-10-11T15:09:05.321Z,57.87
2022-10-11T15:11:36.884Z,56.87
2022-10-11T15:14:08.037Z,57.31
2022-10-11T15:16:44.557Z,56.90
2022-10-11T15:19:23.644Z,57.67
2022-10-11T15:21:54.307Z,59.07
2022-10-11T15:24:24.973Z,59.02
2022-10-11T15:26:55.628Z,58.58
2022-10-11T15:29:26.078Z,58.40
2022-10-11T15:31:56.528Z,58.31
2022-10-11T15:34:26.993Z,57.40
2022-10-11T15:36:57.390Z,57.75
2022-10-11T15:39:34.878Z,56.88
2022-10-11T15:42:05.426Z,57.27
2022-10-11T15:44:36.445Z,57.26
2022-10-11T15:47:06.978Z,56.90
2022-10-11T15:49:37.392Z,56.87
2022-10-11T15:52:07.828Z,56.77
2022-10-11T15:54:38.601Z,56.05
2022-10-11T15:57:09.511Z,56.52
2022-10-11T15:59:40.082Z,56.45
2022-10-11T16:02:16.248Z,54.47
2022-10-11T16:04:46.967Z,55.77
2022-10-11T16:07:17.426Z,55.83
2022-10-11T16:09:47.954Z,55.52
2022-10-11T16:12:18.375Z,55.40
2022-10-11T16:14:48.885Z,55.58
2022-10-11T16:17:19.299Z,55.25
2022-10-11T16:19:52.430Z,55.06
2022-10-11T16:22:23.301Z,55.10
2022-10-11T16:24:56.290Z,54.66
2022-10-11T16:27:26.717Z,55.51
2022-10-11T16:30:00.164Z,55.34
2022-10-11T16:32:30.687Z,55.54
2022-10-11T16:35:01.294Z,55.14
2022-10-11T16:37:33.587Z,54.93
2022-10-11T16:40:04.609Z,55.43
2022-10-11T16:42:44.969Z,54.98
2022-10-11T16:45:17.105Z,55.01
2022-10-11T16:47:47.650Z,54.56
2022-10-11T16:50:18.048Z,54.70
2022-10-11T16:52:48.480Z,54.41
2022-10-11T16:55:19.103Z,54.26
2022-10-11T16:57:49.625Z,54.58
2022-10-11T17:00:20.217Z,54.37
2022-10-11T17:02:50.668Z,54.64
2022-10-11T17:05:21.192Z,54.55
2022-10-11T17:07:51.679Z,54.48
2022-10-11T17:10:40.130Z,54.17
2022-10-11T17:13:10.534Z,54.07
2022-10-11T17:15:41.495Z,53.92
2022-10-11T17:18:12.020Z,54.34
2022-10-11T17:20:42.462Z,53.87
2022-10-11T17:23:13.559Z,54.21
2022-10-11T17:25:46.634Z,53.77
2022-10-11T17:28:17.020Z,53.68
2022-10-11T17:30:57.791Z,52.05
2022-10-11T17:33:29.255Z,53.62
2022-10-11T17:36:01.745Z,53.63
2022-10-11T17:38:32.193Z,53.40
2022-10-11T17:41:04.604Z,53.83
2022-10-11T17:43:36.190Z,53.83
2022-10-11T17:46:09.474Z,53.40
2022-10-11T17:48:40.382Z,53.87
2022-10-11T17:51:13.568Z,53.79
2022-10-11T17:53:44.312Z,53.49
2022-10-11T17:56:23.893Z,52.85
2022-10-11T17:58:59.180Z,53.64
2022-10-11T18:01:31.153Z,53.15
2022-10-11T18:04:04.078Z,53.05
2022-10-11T18:06:40.934Z,53.21
2022-10-11T18:09:11.632Z,53.07
2022-10-11T18:11:42.684Z,53.10
2022-10-11T18:14:13.562Z,52.85
2022-10-11T18:16:44.080Z,52.77
2022-10-11T18:19:15.598Z,52.53
2022-10-11T18:21:46.068Z,53.05
2022-10-11T18:24:18.047Z,52.46
2022-10-11T18:26:48.963Z,52.15
2022-10-11T18:29:20.392Z,52.80
2022-10-11T18:31:51.063Z,52.15
2022-10-11T18:34:21.804Z,52.25
2022-10-11T18:36:52.222Z,52.30
2022-10-11T18:39:23.074Z,52.57
2022-10-11T18:41:53.578Z,52.45
2022-10-11T18:44:24.047Z,52.05
2022-10-11T18:46:55.051Z,52.01
2022-10-11T18:49:25.526Z,52.22
2022-10-11T18:51:56.111Z,51.86
2022-10-11T18:54:26.612Z,52.13
2022-10-11T18:56:57.033Z,52.19
2022-10-11T18:59:27.457Z,52.25
2022-10-11T19:01:57.848Z,52.47
2022-10-11T19:04:29.553Z,52.11
2022-10-11T19:07:00.660Z,51.78
2022-10-11T19:09:31.716Z,51.70
2022-10-11T19:12:02.109Z,52.14
2022-10-11T19:14:32.527Z,51.64
2022-10-11T19:17:02.997Z,51.70
2022-10-11T19:19:34.165Z,51.61
2022-10-11T19:22:04.616Z,51.66
2022-10-11T19:24:35.075Z,51.41
2022-10-11T19:27:05.571Z,51.91
2022-10-11T19:29:36.143Z,51.59
2022-10-11T19:32:06.762Z,51.21
2022-10-11T19:34:37.197Z,51.41
2022-10-11T19:37:07.657Z,51.24
2022-10-11T19:39:38.027Z,51.35
2022-10-11T19:42:08.676Z,50.96
2022-10-11T19:44:40.346Z,51.30
2022-10-11T19:47:11.242Z,51.47
2022-10-11T19:49:42.025Z,51.38
2022-10-11T19:52:14.318Z,50.71
2022-10-11T19:54:44.902Z,50.60
2022-10-11T19:57:15.505Z,50.76
2022-10-11T19:59:46.737Z,50.65
2022-10-11T20:02:17.668Z,50.78
2022-10-11T20:04:53.387Z,50.56
2022-10-11T20:07:23.886Z,50.64
2022-10-11T20:09:54.417Z,50.18
2022-10-11T20:12:24.816Z,50.24
2022-10-11T20:14:55.353Z,50.39
2022-10-11T20:17:45.488Z,50.14
2022-10-11T20:20:17.280Z,50.45
2022-10-11T20:22:47.731Z,50.05
2022-10-11T20:25:18.156Z,49.78
2022-10-11T20:27:48.694Z,50.06
2022-10-11T20:30:19.107Z,50.07
2022-10-11T20:32:49.500Z,50.33
2022-10-11T20:35:19.955Z,49.99
2022-10-11T20:37:50.447Z,50.12
2022-10-11T20:40:20.904Z,49.81
2022-10-11T20:42:51.298Z,49.70
2022-10-11T20:45:21.906Z,49.84
2022-10-11T20:47:55.148Z,49.54
2022-10-11T20:50:25.571Z,50.17
2022-10-11T20:52:55.908Z,49.58
2022-10-11T20:55:26.574Z,49.71
2022-10-11T20:57:57.642Z,49.94
2022-10-11T21:00:28.143Z,50.04
2022-10-11T21:02:58.513Z,49.90
2022-10-11T21:05:28.906Z,49.98
2022-10-11T21:07:59.764Z,49.98
2022-10-11T21:10:30.776Z,49.64
2022-10-11T21:13:01.255Z,49.79
2022-10-11T21:15:33.620Z,49.47
2022-10-11T21:18:04.050Z,49.99
2022-10-11T21:20:34.503Z,49.54
2022-10-11T21:23:04.870Z,49.69
2022-10-11T21:25:37.321Z,49.63
2022-10-11T21:28:08.756Z,49.70
2022-10-11T21:30:39.279Z,49.38
2022-10-11T21:33:09.834Z,49.53
2022-10-11T21:35:41.273Z,49.14
2022-10-11T21:38:13.562Z,49.54
2022-10-11T21:40:44.009Z,49.38
2022-10-11T21:43:14.687Z,49.37
2022-10-11T21:45:45.249Z,48.94
2022-10-11T21:48:15.678Z,49.01
2022-10-11T21:50:46.085Z,49.34
2022-10-11T21:53:16.711Z,49.17
2022-10-11T21:55:47.105Z,49.44
2022-10-11T21:58:17.488Z,49.08
2022-10-11T22:00:48.969Z,48.92
2022-10-11T22:03:19.724Z,49.01
2022-10-11T22:05:50.911Z,48.88
2022-10-11T22:08:21.592Z,49.16
2022-10-11T22:10:56.895Z,48.51
2022-10-11T22:13:28.872Z,49.02
2022-10-11T22:16:02.578Z,49.13
2022-10-11T22:18:33.916Z,48.89
2022-10-11T22:21:07.395Z,49.25
2022-10-11T22:23:37.973Z,49.16
2022-10-11T22:26:10.907Z,49.02
2022-10-11T22:28:41.729Z,48.73
2022-10-11T22:31:12.508Z,49.14
2022-10-11T22:33:46.470Z,49.13
2022-10-11T22:36:18.197Z,48.96
2022-10-11T22:38:48.861Z,48.89
2022-10-11T22:41:19.482Z,48.72
2022-10-11T22:43:50.187Z,49.00
2022-10-11T22:46:20.903Z,48.61
2022-10-11T22:48:51.290Z,49.05
2022-10-11T22:51:21.857Z,48.76
2022-10-11T22:53:52.605Z,49.01
2022-10-11T22:56:23.244Z,49.05
2022-10-11T22:58:53.680Z,48.87
2022-10-11T23:01:24.060Z,48.04
2022-10-11T23:03:55.011Z,49.31
2022-10-11T23:06:25.645Z,50.45
2022-10-11T23:08:56.199Z,51.46
2022-10-11T23:11:26.636Z,51.96
2022-10-11T23:13:57.342Z,52.83
2022-10-11T23:16:28.150Z,53.28
2022-10-11T23:18:58.990Z,54.18
2022-10-11T23:21:30.392Z,54.54
2022-10-11T23:24:00.895Z,61.01
2022-10-11T23:26:31.554Z,64.29
2022-10-11T23:29:02.074Z,67.28
2022-10-11T23:31:32.441Z,67.81
2022-10-11T23:34:02.933Z,72.85
2022-10-11T23:36:33.419Z,74.68
2022-10-11T23:39:03.995Z,74.55
2022-10-11T23:41:34.468Z,74.76
2022-10-11T23:44:05.193Z,72.99
2022-10-11T23:46:35.580Z,75.89
2022-10-11T23:49:06.619Z,74.56
2022-10-11T23:51:37.072Z,75.45
2022-10-11T23:54:07.995Z,76.34
2022-10-11T23:56:38.400Z,72.96
2022-10-11T23:59:09.004Z,70.05
